createdAt,value
2022-11-29T00:00:50.515Z,53.38
2022-11-29T00:03:17.052Z,56.60
2022-11-29T00:05:43.634Z,47.60
2022-11-29T00:08:10.161Z,47.33
2022-11-29T00:10:38.011Z,55.75
2022-11-29T00:13:05.178Z,51.72
2022-11-29T00:15:39.539Z,48.13
2022-11-29T00:18:07.334Z,62.05
2022-11-29T00:20:34.816Z,49.83
2022-11-29T00:23:01.624Z,47.10
2022-11-29T00:25:28.277Z,51.95
2022-11-29T00:27:54.811Z,60.77
2022-11-29T00:30:21.680Z,63.85
2022-11-29T00:32:48.299Z,59.17
2022-11-29T00:35:14.877Z,57.50
2022-11-29T00:37:41.307Z,64.78
2022-11-29T00:40:08.476Z,72.10
2022-11-29T00:42:34.933Z,169.00
2022-11-29T00:45:01.496Z,139.20
2022-11-29T00:47:27.974Z,224.82
2022-11-29T00:49:54.603Z,170.32
2022-11-29T00:52:21.122Z,52.77
2022-11-29T00:54:47.660Z,52.75
2022-11-29T00:57:14.075Z,59.22
2022-11-29T00:59:40.522Z,61.47
2022-11-29T01:02:07.150Z,54.15
2022-11-29T01:04:33.729Z,46.80
2022-11-29T01:07:00.249Z,61.80
2022-11-29T01:09:26.800Z,54.90
2022-11-29T01:11:53.312Z,56.20
2022-11-29T01:14:19.818Z,71.07
2022-11-29T01:16:46.474Z,77.33
2022-11-29T01:19:13.077Z,53.83
2022-11-29T01:21:39.649Z,53.50
2022-11-29T01:24:06.228Z,52.78
2022-11-29T01:26:33.437Z,54.25
2022-11-29T01:29:00.188Z,50.73
2022-11-29T01:31:32.428Z,47.92
2022-11-29T01:34:01.271Z,46.92
2022-11-29T01:36:27.934Z,44.72
2022-11-29T01:38:54.474Z,47.00
2022-11-29T01:41:27.302Z,50.33
2022-11-29T01:43:59.211Z,45.72
2022-11-29T01:46:28.229Z,47.88
2022-11-29T01:48:59.389Z,46.13
2022-11-29T01:51:27.897Z,43.05
2022-11-29T01:53:55.281Z,47.10
2022-11-29T01:56:23.215Z,49.00
2022-11-29T01:58:49.737Z,45.95
2022-11-29T02:01:16.462Z,41.60
2022-11-29T02:03:42.996Z,43.25
2022-11-29T02:06:09.777Z,45.77
2022-11-29T02:08:41.945Z,43.47
2022-11-29T02:11:35.781Z,42.10
2022-11-29T02:14:42.886Z,44.63
2022-11-29T02:17:20.148Z,47.28
2022-11-29T02:20:08.436Z,46.97
2022-11-29T02:22:45.424Z,39.97
2022-11-29T02:25:31.808Z,39.08
2022-11-29T02:28:13.419Z,44.75
2022-11-29T02:30:57.939Z,38.53
2022-11-29T02:33:53.780Z,34.60
2022-11-29T02:36:43.274Z,42.22
2022-11-29T02:39:34.604Z,44.60
2022-11-29T02:42:54.091Z,40.53
2022-11-29T02:45:56.892Z,38.35
2022-11-29T02:48:54.711Z,33.70
2022-11-29T02:51:32.079Z,37.50
2022-11-29T02:54:24.373Z,37.15
2022-11-29T02:57:00.106Z,42.58
2022-11-29T02:59:47.939Z,39.17
2022-11-29T03:02:26.584Z,47.50
2022-11-29T03:04:58.977Z,36.05
2022-11-29T03:07:31.339Z,34.17
2022-11-29T03:10:10.967Z,41.00
2022-11-29T03:12:44.792Z,36.22
2022-11-29T03:15:23.395Z,35.87
2022-11-29T03:18:07.972Z,43.20
2022-11-29T03:20:52.810Z,48.30
2022-11-29T03:23:37.016Z,59.80
2022-11-29T03:26:09.165Z,57.40
2022-11-29T03:28:46.297Z,48.87
2022-11-29T03:31:22.703Z,44.35
2022-11-29T03:34:21.148Z,40.08
2022-11-29T03:37:03.695Z,36.97
2022-11-29T03:40:06.208Z,41.45
2022-11-29T03:42:48.784Z,58.87
2022-11-29T03:45:36.660Z,87.40
2022-11-29T03:48:27.735Z,107.80
2022-11-29T03:50:59.897Z,64.38
2022-11-29T03:53:35.948Z,121.93
2022-11-29T03:56:23.067Z,125.83
2022-11-29T03:58:55.215Z,128.25
2022-11-29T04:01:21.674Z,138.60
2022-11-29T04:03:57.358Z,102.18
2022-11-29T04:07:02.588Z,128.23
2022-11-29T04:09:54.025Z,119.03
2022-11-29T04:13:09.273Z,114.93
2022-11-29T04:16:02.959Z,116.63
2022-11-29T04:18:54.494Z,72.88
2022-11-29T04:21:39.123Z,107.65
2022-11-29T04:24:21.275Z,74.83
2022-11-29T04:27:32.614Z,56.78
2022-11-29T04:30:17.643Z,74.53
2022-11-29T04:32:47.170Z,81.93
2022-11-29T04:35:35.984Z,77.85
2022-11-29T04:38:30.219Z,96.73
2022-11-29T04:41:05.823Z,49.58
2022-11-29T04:43:44.457Z,104.95
2022-11-29T04:46:23.674Z,50.30
2022-11-29T04:49:02.090Z,174.18
2022-11-29T04:51:39.637Z,114.07
2022-11-29T04:54:27.144Z,88.28
2022-11-29T04:57:33.221Z,82.07
2022-11-29T05:00:10.202Z,93.85
2022-11-29T05:02:57.017Z,97.45
2022-11-29T05:05:36.411Z,154.70
2022-11-29T05:08:27.492Z,100.18
2022-11-29T05:11:05.756Z,93.43
2022-11-29T05:13:53.474Z,32.38
2022-11-29T05:16:51.025Z,33.78
2022-11-29T05:19:42.568Z,68.43
2022-11-29T05:22:43.393Z,72.65
2022-11-29T05:25:31.848Z,30.35
2022-11-29T05:28:10.157Z,113.60
2022-11-29T05:31:07.181Z,75.97
2022-11-29T05:34:09.359Z,66.60
2022-11-29T05:36:56.032Z,40.90
2022-11-29T05:39:41.407Z,42.67
2022-11-29T05:42:17.032Z,35.08
2022-11-29T05:44:49.412Z,38.33
2022-11-29T05:47:28.318Z,28.23
2022-11-29T05:50:11.388Z,38.10
2022-11-29T05:53:08.503Z,57.58
2022-11-29T05:55:40.772Z,28.52
2022-11-29T05:58:30.304Z,61.58
2022-11-29T06:01:09.517Z,48.00
2022-11-29T06:03:45.069Z,35.88
2022-11-29T06:06:26.016Z,109.78
2022-11-29T06:09:01.608Z,122.32
2022-11-29T06:11:33.078Z,41.10
2022-11-29T06:14:08.483Z,32.27
2022-11-29T06:16:57.003Z,39.00
2022-11-29T06:19:34.435Z,55.53
2022-11-29T06:22:21.881Z,42.92
2022-11-29T06:25:16.904Z,63.58
2022-11-29T06:28:11.434Z,37.57
2022-11-29T06:30:54.680Z,46.83
2022-11-29T06:33:28.730Z,38.95
2022-11-29T06:36:16.545Z,29.20
2022-11-29T06:38:43.573Z,24.58
2022-11-29T06:41:19.477Z,30.10
2022-11-29T06:43:46.616Z,33.35
2022-11-29T06:46:23.006Z,31.17
2022-11-29T06:49:06.694Z,29.60
2022-11-29T06:52:05.801Z,27.42
2022-11-29T06:55:03.523Z,39.37
2022-11-29T06:57:51.750Z,32.88
2022-11-29T07:00:26.994Z,37.45
2022-11-29T07:03:11.722Z,47.05
2022-11-29T07:05:39.413Z,26.83
2022-11-29T07:08:13.789Z,29.87
2022-11-29T07:10:41.549Z,44.85
2022-11-29T07:13:08.432Z,44.47
2022-11-29T07:15:37.160Z,29.58
2022-11-29T07:18:45.413Z,62.92
2022-11-29T07:21:38.095Z,25.43
2022-11-29T07:24:28.860Z,26.70
2022-11-29T07:27:16.494Z,43.35
2022-11-29T07:29:49.261Z,56.80
2022-11-29T07:32:21.812Z,26.98
2022-11-29T07:35:19.383Z,32.63
2022-11-29T07:38:04.292Z,29.10
2022-11-29T07:40:37.886Z,24.17
2022-11-29T07:43:39.154Z,27.13
2022-11-29T07:46:05.689Z,27.85
2022-11-29T07:48:32.181Z,16.13
2022-11-29T07:50:58.750Z,25.73
2022-11-29T07:53:25.447Z,25.65
2022-11-29T07:55:52.061Z,25.48
2022-11-29T07:58:19.023Z,29.15
2022-11-29T08:00:45.842Z,27.67
2022-11-29T08:03:12.673Z,17.98
2022-11-29T08:05:40.368Z,16.13
2022-11-29T08:08:07.661Z,17.23
2022-11-29T08:10:35.574Z,17.75
2022-11-29T08:13:02.103Z,16.10
2022-11-29T08:15:28.744Z,13.63
2022-11-29T08:17:55.239Z,17.88
2022-11-29T08:20:21.846Z,17.23
2022-11-29T08:22:59.263Z,17.48
2022-11-29T08:25:27.515Z,17.90
2022-11-29T08:27:54.825Z,18.63
2022-11-29T08:30:25.167Z,16.80
2022-11-29T08:32:52.456Z,17.50
2022-11-29T08:35:21.603Z,21.17
2022-11-29T08:37:48.251Z,27.30
2022-11-29T08:40:16.046Z,23.48
2022-11-29T08:42:42.610Z,29.42
2022-11-29T08:45:10.513Z,23.08
2022-11-29T08:47:38.312Z,17.08
2022-11-29T08:50:10.083Z,19.93
2022-11-29T08:52:58.071Z,26.00
2022-11-29T08:55:27.782Z,22.13
2022-11-29T08:58:02.025Z,17.52
2022-11-29T09:00:28.637Z,26.88
2022-11-29T09:02:55.075Z,17.33
2022-11-29T09:05:21.587Z,17.65
2022-11-29T09:07:48.123Z,14.82
2022-11-29T09:10:14.659Z,18.05
2022-11-29T09:12:41.399Z,12.80
2022-11-29T09:15:10.012Z,16.77
2022-11-29T09:17:36.671Z,17.85
2022-11-29T09:20:04.610Z,15.02
2022-11-29T09:22:31.584Z,16.20
2022-11-29T09:24:58.131Z,16.77
2022-11-29T09:27:24.660Z,13.37
2022-11-29T09:29:51.171Z,12.75
2022-11-29T09:32:17.657Z,12.80
2022-11-29T09:34:44.483Z,11.30
2022-11-29T09:37:11.177Z,11.55
2022-11-29T09:39:38.225Z,12.07
2022-11-29T09:42:18.122Z,19.77
2022-11-29T09:45:03.277Z,13.45
2022-11-29T09:47:35.919Z,11.75
2022-11-29T09:50:31.399Z,14.80
2022-11-29T09:53:03.881Z,8.30
2022-11-29T09:55:49.238Z,9.90
2022-11-29T09:58:21.559Z,9.23
2022-11-29T10:00:56.745Z,13.13
2022-11-29T10:03:28.879Z,12.68
2022-11-29T10:06:02.385Z,15.37
2022-11-29T10:08:45.712Z,14.50
2022-11-29T10:11:43.249Z,12.68
2022-11-29T10:14:25.811Z,12.13
2022-11-29T10:16:55.041Z,11.63
2022-11-29T10:19:32.821Z,10.17
2022-11-29T10:22:35.622Z,11.80
2022-11-29T10:25:06.232Z,9.20
2022-11-29T10:27:32.966Z,15.82
2022-11-29T10:30:01.005Z,10.38
2022-11-29T10:32:30.827Z,8.57
2022-11-29T10:35:00.640Z,13.63
2022-11-29T10:37:32.622Z,10.90
2022-11-29T10:40:07.947Z,14.25
2022-11-29T10:42:49.564Z,12.63
2022-11-29T10:45:31.320Z,10.27
2022-11-29T10:48:08.151Z,7.60
2022-11-29T10:50:36.355Z,15.63
2022-11-29T10:53:09.597Z,17.30
2022-11-29T10:55:42.548Z,11.73
2022-11-29T10:58:08.988Z,13.33
2022-11-29T11:00:51.770Z,13.55
2022-11-29T11:03:33.729Z,12.50
2022-11-29T11:06:01.916Z,9.93
2022-11-29T11:08:29.014Z,13.45
2022-11-29T11:11:01.229Z,10.50
2022-11-29T11:13:31.130Z,11.20
2022-11-29T11:15:59.105Z,11.38
2022-11-29T11:18:29.193Z,10.93
2022-11-29T11:21:02.099Z,13.00
2022-11-29T11:23:36.390Z,14.63
2022-11-29T11:26:11.553Z,12.55
2022-11-29T11:28:47.178Z,13.25
2022-11-29T11:31:14.483Z,14.25
2022-11-29T11:33:45.984Z,14.60
2022-11-29T11:36:24.704Z,14.67
2022-11-29T11:38:54.131Z,12.38
2022-11-29T11:41:53.971Z,16.98
2022-11-29T11:44:46.473Z,13.52
2022-11-29T11:47:18.156Z,14.85
2022-11-29T11:49:50.402Z,8.40
2022-11-29T11:52:21.965Z,12.65
2022-11-29T11:54:54.452Z,10.68
2022-11-29T11:57:23.079Z,11.40
2022-11-29T11:59:54.293Z,14.75
2022-11-29T12:02:24.832Z,15.00
2022-11-29T12:04:54.132Z,13.98
2022-11-29T12:07:59.372Z,14.10
2022-11-29T12:10:25.457Z,16.08
2022-11-29T12:12:53.596Z,13.13
2022-11-29T12:15:25.821Z,14.13
2022-11-29T12:18:12.832Z,15.68
2022-11-29T12:20:48.913Z,15.88
2022-11-29T12:23:15.385Z,13.85
2022-11-29T12:25:54.730Z,11.65
2022-11-29T12:28:25.432Z,12.97
2022-11-29T12:31:37.673Z,15.95
2022-11-29T12:34:43.319Z,10.93
2022-11-29T12:37:23.695Z,15.05
2022-11-29T12:39:53.470Z,14.85
2022-11-29T12:42:44.800Z,11.03
2022-11-29T12:45:21.540Z,13.02
2022-11-29T12:47:57.385Z,10.48
2022-11-29T12:50:24.030Z,14.15
2022-11-29T12:53:20.106Z,10.00
2022-11-29T12:56:11.095Z,13.93
2022-11-29T12:59:04.048Z,10.40
2022-11-29T13:02:01.548Z,8.30
2022-11-29T13:04:52.683Z,9.55
2022-11-29T13:07:46.304Z,14.80
2022-11-29T13:10:55.925Z,15.57
2022-11-29T13:13:46.195Z,11.32
2022-11-29T13:16:31.696Z,12.88
2022-11-29T13:19:39.377Z,15.80
2022-11-29T13:22:27.515Z,15.20
2022-11-29T13:24:59.253Z,15.30
2022-11-29T13:27:35.273Z,11.23
2022-11-29T13:30:02.511Z,8.88
2022-11-29T13:33:16.591Z,13.88
2022-11-29T13:36:04.939Z,13.82
2022-11-29T13:38:46.652Z,10.60
2022-11-29T13:41:28.435Z,12.68
2022-11-29T13:44:29.057Z,12.27
2022-11-29T13:47:16.531Z,12.98
2022-11-29T13:49:54.628Z,13.27
2022-11-29T13:52:43.615Z,11.73
2022-11-29T13:55:13.004Z,11.38
2022-11-29T14:00:44.217Z,12.48
2022-11-29T14:03:36.256Z,9.77
2022-11-29T14:06:03.397Z,9.47
2022-11-29T14:08:48.095Z,9.02
2022-11-29T14:11:28.404Z,14.68
2022-11-29T14:14:27.812Z,16.70
2022-11-29T14:17:06.372Z,13.30
2022-11-29T14:19:35.432Z,10.30
2022-11-29T14:22:01.886Z,10.02
2022-11-29T14:24:35.411Z,12.00
2022-11-29T14:27:09.054Z,11.00
2022-11-29T14:29:54.244Z,9.93
2022-11-29T14:32:29.869Z,13.67
2022-11-29T14:34:59.452Z,10.40
2022-11-29T14:37:35.232Z,9.50
2022-11-29T14:40:15.836Z,10.38
2022-11-29T14:42:49.636Z,12.85
2022-11-29T14:45:29.153Z,9.57
2022-11-29T14:47:56.544Z,10.57
2022-11-29T14:50:38.658Z,9.55
2022-11-29T14:53:07.179Z,9.50
2022-11-29T14:55:37.309Z,13.32
2022-11-29T14:58:18.512Z,8.60
2022-11-29T15:00:48.060Z,11.70
2022-11-29T15:03:32.810Z,10.52
2022-11-29T15:06:06.212Z,12.00
2022-11-29T15:08:40.738Z,17.02
2022-11-29T15:11:10.337Z,10.67
2022-11-29T15:13:44.520Z,7.97
2022-11-29T15:16:40.297Z,11.05
2022-11-29T15:19:06.792Z,15.80
2022-11-29T15:21:56.111Z,9.00
2022-11-29T15:24:28.311Z,13.63
2022-11-29T15:27:03.807Z,8.93
2022-11-29T15:29:31.452Z,9.65
2022-11-29T15:32:01.096Z,23.80
2022-11-29T15:34:35.031Z,8.63
2022-11-29T15:37:01.771Z,7.37
2022-11-29T15:39:30.089Z,9.45
2022-11-29T15:42:22.813Z,9.10
2022-11-29T15:44:53.333Z,11.63
2022-11-29T15:47:26.936Z,11.88
2022-11-29T15:49:54.327Z,17.43
2022-11-29T15:52:29.636Z,10.65
2022-11-29T15:55:03.260Z,11.80
2022-11-29T15:57:36.041Z,13.70
2022-11-29T16:00:06.115Z,16.23
2022-11-29T16:02:40.016Z,12.30
2022-11-29T16:05:26.097Z,15.02
2022-11-29T16:07:57.438Z,15.10
2022-11-29T16:10:39.572Z,16.38
2022-11-29T16:13:25.836Z,22.58
2022-11-29T16:16:19.518Z,20.50
2022-11-29T16:18:47.972Z,24.35
2022-11-29T16:21:32.303Z,19.92
2022-11-29T16:24:10.392Z,23.77
2022-11-29T16:26:41.591Z,17.58
2022-11-29T16:29:21.593Z,19.10
2022-11-29T16:31:48.198Z,17.15
2022-11-29T16:34:35.087Z,18.65
2022-11-29T16:37:07.816Z,14.77
2022-11-29T16:39:37.505Z,17.63
2022-11-29T16:42:13.692Z,30.77
2022-11-29T16:44:40.074Z,20.60
2022-11-29T16:47:27.428Z,18.50
2022-11-29T16:50:02.964Z,16.60
2022-11-29T16:52:32.446Z,16.92
2022-11-29T16:54:59.212Z,15.33
2022-11-29T16:57:27.481Z,16.38
2022-11-29T16:59:54.352Z,15.65
2022-11-29T17:02:20.830Z,17.13
2022-11-29T17:04:47.674Z,14.27
2022-11-29T17:07:26.964Z,16.90
2022-11-29T17:09:53.562Z,18.85
2022-11-29T17:12:20.107Z,17.83
2022-11-29T17:14:46.813Z,18.02
2022-11-29T17:17:18.381Z,21.90
2022-11-29T17:19:45.115Z,16.57
2022-11-29T17:22:12.492Z,18.65
2022-11-29T17:24:43.418Z,16.15
2022-11-29T17:27:13.133Z,16.40
2022-11-29T17:29:40.719Z,16.33
2022-11-29T17:32:07.268Z,19.50
2022-11-29T17:34:34.006Z,14.55
2022-11-29T17:37:00.602Z,16.38
2022-11-29T17:39:27.057Z,14.10
2022-11-29T17:41:53.570Z,17.90
2022-11-29T17:44:20.257Z,14.77
2022-11-29T17:46:46.792Z,14.32
2022-11-29T17:49:13.292Z,13.63
2022-11-29T17:51:51.673Z,16.90
2022-11-29T17:54:19.597Z,15.73
2022-11-29T17:56:46.172Z,16.37
2022-11-29T17:59:12.640Z,13.82
2022-11-29T18:01:39.317Z,14.77
2022-11-29T18:04:06.525Z,16.95
2022-11-29T18:06:38.499Z,13.45
2022-11-29T18:09:07.543Z,13.83
2022-11-29T18:11:47.037Z,13.38
2022-11-29T18:14:28.287Z,15.82
2022-11-29T18:16:55.143Z,14.03
2022-11-29T18:19:23.173Z,15.55
2022-11-29T18:21:50.690Z,14.52
2022-11-29T18:24:17.564Z,14.68
2022-11-29T18:26:44.281Z,16.98
2022-11-29T18:29:11.170Z,12.50
2022-11-29T18:31:40.759Z,11.93
2022-11-29T18:34:11.364Z,13.55
2022-11-29T18:36:42.853Z,13.50
2022-11-29T18:39:13.999Z,13.80
2022-11-29T18:41:42.109Z,10.30
2022-11-29T18:44:11.478Z,16.65
2022-11-29T18:46:39.483Z,12.68
2022-11-29T18:49:08.837Z,10.00
2022-11-29T18:51:36.903Z,14.27
2022-11-29T18:54:04.228Z,14.17
2022-11-29T18:56:32.727Z,10.30
2022-11-29T18:59:01.827Z,12.80
2022-11-29T19:01:30.765Z,10.43
2022-11-29T19:03:59.305Z,12.45
2022-11-29T19:06:28.905Z,12.80
2022-11-29T19:08:58.452Z,9.25
2022-11-29T19:11:29.796Z,10.77
2022-11-29T19:14:01.721Z,10.90
2022-11-29T19:16:30.435Z,8.48
2022-11-29T19:18:58.278Z,10.23
2022-11-29T19:21:26.945Z,12.30
2022-11-29T19:23:56.343Z,9.65
2022-11-29T19:26:25.191Z,8.10
2022-11-29T19:28:51.850Z,11.95
2022-11-29T19:31:20.388Z,8.13
2022-11-29T19:33:47.372Z,9.93
2022-11-29T19:36:19.500Z,12.60
2022-11-29T19:38:50.242Z,10.15
2022-11-29T19:41:25.879Z,9.38
2022-11-29T19:43:52.882Z,11.23
2022-11-29T19:46:22.455Z,7.80
2022-11-29T19:48:51.792Z,9.32
2022-11-29T19:51:18.612Z,9.55
2022-11-29T19:53:46.449Z,8.93
2022-11-29T19:56:15.597Z,8.33
2022-11-29T19:58:43.127Z,11.68
2022-11-29T20:01:13.171Z,11.20
2022-11-29T20:03:40.874Z,9.63
2022-11-29T20:06:09.213Z,10.60
2022-11-29T20:08:36.791Z,14.27
2022-11-29T20:11:10.617Z,12.35
2022-11-29T20:13:38.225Z,10.50
2022-11-29T20:16:08.914Z,6.72
2022-11-29T20:18:37.110Z,8.05
2022-11-29T20:21:11.901Z,7.93
2022-11-29T20:23:40.477Z,10.25
2022-11-29T20:26:11.680Z,12.60
2022-11-29T20:28:38.196Z,9.70
2022-11-29T20:31:07.563Z,9.32
2022-11-29T20:33:34.495Z,13.07
2022-11-29T20:36:22.821Z,10.57
2022-11-29T20:39:13.663Z,7.78
2022-11-29T20:42:18.772Z,7.80
2022-11-29T20:44:54.361Z,8.60
2022-11-29T20:47:23.685Z,9.80
2022-11-29T20:49:50.424Z,10.05
2022-11-29T20:52:38.552Z,9.43
2022-11-29T20:55:05.511Z,8.90
2022-11-29T20:57:32.040Z,7.90
2022-11-29T20:59:58.550Z,9.90
2022-11-29T21:02:25.504Z,9.70
2022-11-29T21:04:52.395Z,10.30
2022-11-29T21:07:18.998Z,6.85
2022-11-29T21:09:45.819Z,7.63
2022-11-29T21:12:12.831Z,10.50
2022-11-29T21:14:39.960Z,8.35
2022-11-29T21:17:06.724Z,6.30
2022-11-29T21:19:33.474Z,7.32
2022-11-29T21:22:37.249Z,10.18
2022-11-29T21:25:03.900Z,6.77
2022-11-29T21:27:34.853Z,7.93
2022-11-29T21:30:04.208Z,10.73
2022-11-29T21:32:31.601Z,6.88
2022-11-29T21:34:58.416Z,12.57
2022-11-29T21:37:30.590Z,6.03
2022-11-29T21:39:57.680Z,12.88
2022-11-29T21:42:24.410Z,5.40
2022-11-29T21:44:51.022Z,7.50
2022-11-29T21:47:17.593Z,7.55
2022-11-29T21:49:44.110Z,7.40
2022-11-29T21:52:10.708Z,11.23
2022-11-29T21:54:37.288Z,7.93
2022-11-29T21:57:03.874Z,7.82
2022-11-29T21:59:30.393Z,9.32
2022-11-29T22:01:57.132Z,11.10
2022-11-29T22:04:23.838Z,5.85
2022-11-29T22:06:50.387Z,8.23
2022-11-29T22:09:16.874Z,11.20
2022-11-29T22:11:43.579Z,8.57
2022-11-29T22:14:16.133Z,9.57
2022-11-29T22:16:57.207Z,9.10
2022-11-29T22:19:24.912Z,10.30
2022-11-29T22:21:53.763Z,7.30
2022-11-29T22:24:22.815Z,7.20
2022-11-29T22:26:50.415Z,7.53
2022-11-29T22:29:17.272Z,9.57
2022-11-29T22:31:45.687Z,8.05
2022-11-29T22:34:12.489Z,11.13
2022-11-29T22:36:39.801Z,8.45
2022-11-29T22:39:07.253Z,7.33
2022-11-29T22:41:35.051Z,10.23
2022-11-29T22:44:02.529Z,7.32
2022-11-29T22:46:29.805Z,10.60
2022-11-29T22:48:57.706Z,14.98
2022-11-29T22:51:30.656Z,12.60
2022-11-29T22:53:59.792Z,11.10
2022-11-29T22:56:30.365Z,14.38
2022-11-29T22:58:57.223Z,10.52
2022-11-29T23:01:26.943Z,11.82
2022-11-29T23:03:56.636Z,14.23
2022-11-29T23:06:25.246Z,11.10
2022-11-29T23:08:53.917Z,14.27
2022-11-29T23:11:22.789Z,14.60
2022-11-29T23:13:49.596Z,18.85
2022-11-29T23:16:22.312Z,12.77
2022-11-29T23:18:49.049Z,12.50
2022-11-29T23:21:27.370Z,13.45
2022-11-29T23:23:56.551Z,12.00
2022-11-29T23:26:29.521Z,11.90
2022-11-29T23:28:56.538Z,12.77
2022-11-29T23:31:24.426Z,13.85
2022-11-29T23:33:51.260Z,13.60
2022-11-29T23:36:18.172Z,14.40
2022-11-29T23:38:44.982Z,12.10
2022-11-29T23:41:13.168Z,12.57
2022-11-29T23:43:40.969Z,12.40
2022-11-29T23:46:14.295Z,12.70
2022-11-29T23:48:41.273Z,13.88
2022-11-29T23:51:07.830Z,11.90
2022-11-29T23:53:34.410Z,10.30
2022-11-29T23:56:03.557Z,10.18
2022-11-29T23:58:30.938Z,13.63
